createdAt,value
2018-01-06T00:23:48.489Z,69.27
2018-01-06T00:42:52.172Z,74.30
2018-01-06T00:48:05.654Z,78.57
2018-01-06T00:50:37.814Z,77.37
2018-01-06T00:53:11.360Z,79.13
2018-01-06T00:55:40.104Z,82.90
2018-01-06T01:03:49.951Z,96.17
2018-01-06T01:06:24.771Z,108.73
2018-01-06T01:14:30.217Z,132.23
2018-01-06T01:25:29.136Z,118.30
2018-01-06T01:28:07.288Z,102.70
2018-01-06T01:33:33.191Z,102.50
2018-01-06T01:52:42.068Z,117.43
2018-01-06T02:00:43.973Z,105.27
2018-01-06T02:03:12.807Z,99.53
2018-01-06T02:11:20.661Z,105.23
2018-01-06T02:14:02.211Z,94.93
2018-01-06T02:16:39.343Z,92.23
2018-01-06T02:19:07.099Z,98.37
2018-01-06T02:21:50.219Z,101.07
2018-01-06T02:29:47.986Z,110.30
2018-01-06T02:32:24.751Z,103.13
2018-01-06T02:34:51.502Z,98.30
2018-01-06T02:37:18.225Z,92.70
2018-01-06T02:45:32.905Z,100.47
2018-01-06T02:48:05.091Z,98.30
2018-01-06T02:50:33.822Z,103.13
2018-01-06T02:53:01.624Z,101.50
2018-01-06T02:55:33.026Z,102.23
2018-01-06T03:00:55.246Z,99.00
2018-01-06T03:08:52.797Z,91.37
2018-01-06T03:11:19.516Z,95.77
2018-01-06T03:13:53.452Z,91.93
2018-01-06T03:19:09.394Z,101.50
2018-01-06T03:49:10.157Z,93.57
2018-01-06T03:51:36.919Z,83.73
2018-01-06T03:54:09.743Z,88.67
2018-01-06T03:56:37.458Z,96.70
2018-01-06T03:59:06.100Z,98.23
2018-01-06T04:01:36.376Z,101.03
2018-01-06T04:04:06.940Z,94.40
2018-01-06T04:14:54.740Z,109.93
2018-01-06T04:20:08.594Z,100.07
2018-01-06T04:22:52.443Z,99.60
2018-01-06T04:25:25.258Z,95.13
2018-01-06T04:27:54.490Z,107.70
2018-01-06T04:30:21.222Z,108.47
2018-01-06T04:32:47.955Z,105.30
2018-01-06T04:35:20.929Z,114.13
2018-01-06T04:40:49.854Z,108.80
2018-01-06T04:43:18.624Z,109.60
2018-01-06T04:45:46.351Z,113.73
2018-01-06T04:48:30.353Z,111.30
2018-01-06T04:51:08.386Z,107.20
2018-01-06T04:53:35.109Z,104.57
2018-01-06T05:01:42.169Z,80.97
2018-01-06T05:04:19.692Z,89.20
2018-01-06T05:09:36.853Z,80.70
2018-01-06T05:12:14.412Z,84.87
2018-01-06T05:14:42.102Z,83.13
2018-01-06T05:17:12.808Z,91.93
2018-01-06T05:19:39.485Z,89.33
2018-01-06T05:22:06.238Z,98.10
2018-01-06T05:27:31.306Z,89.90
2018-01-06T05:30:00.138Z,100.70
2018-01-06T05:54:40.574Z,64.60
2018-01-06T05:57:07.320Z,66.67
2018-01-06T05:59:48.669Z,63.80
2018-01-06T06:07:57.054Z,69.70
2018-01-06T06:10:25.802Z,71.63
2018-01-06T06:12:52.523Z,67.37
2018-01-06T06:15:19.250Z,77.67
2018-01-06T06:20:41.626Z,82.00
2018-01-06T06:23:21.856Z,85.50
2018-01-06T06:25:52.092Z,77.43
2018-01-06T06:58:40.928Z,67.80
2018-01-06T07:04:11.826Z,68.40
2018-01-06T07:09:24.123Z,63.17
2018-01-06T07:23:10.994Z,76.63
2018-01-06T07:34:00.396Z,106.87
2018-01-06T07:36:27.110Z,107.90
2018-01-06T07:38:53.952Z,114.50
2018-01-06T07:41:34.640Z,123.83
2018-01-06T07:44:16.003Z,135.23
2018-01-06T07:47:01.484Z,129.67
2018-01-06T07:49:33.438Z,135.73
2018-01-06T07:52:00.154Z,121.77
2018-01-06T07:54:31.148Z,129.33
2018-01-06T07:56:58.870Z,123.30
2018-01-06T07:59:40.322Z,120.90
2018-01-06T08:02:07.081Z,120.40
2018-01-06T08:04:47.986Z,118.93
2018-01-06T08:07:15.728Z,106.57
2018-01-06T08:09:54.052Z,106.30
2018-01-06T08:12:20.872Z,111.40
2018-01-06T08:14:47.588Z,106.80
2018-01-06T08:17:22.966Z,99.37
2018-01-06T08:19:50.643Z,79.27
2018-01-06T08:22:20.544Z,95.13
2018-01-06T08:24:47.302Z,88.03
2018-01-06T08:27:14.976Z,88.90
2018-01-06T08:29:53.476Z,94.40
2018-01-06T08:32:25.566Z,122.90
2018-01-06T08:35:03.023Z,138.57
2018-01-06T08:37:29.748Z,131.87
2018-01-06T08:42:51.336Z,151.90
2018-01-06T08:45:29.946Z,187.53
2018-01-06T08:50:49.132Z,170.93
2018-01-06T08:53:15.840Z,163.13
2018-01-06T08:55:42.526Z,143.87
2018-01-06T09:01:08.282Z,149.30
2018-01-06T09:06:21.146Z,141.33
2018-01-06T09:08:55.481Z,133.00
2018-01-06T09:11:27.802Z,152.93
2018-01-06T09:13:58.471Z,137.67
2018-01-06T09:16:25.201Z,134.60
2018-01-06T09:18:51.912Z,145.03
2018-01-06T09:21:18.671Z,116.13
2018-01-06T09:23:46.186Z,128.87
2018-01-06T09:26:12.920Z,117.60
2018-01-06T09:28:46.032Z,115.00
2018-01-06T09:31:12.743Z,118.27
2018-01-06T09:36:32.933Z,158.13
2018-01-06T09:39:03.472Z,147.70
2018-01-06T09:41:31.342Z,166.20
2018-01-06T09:43:58.146Z,169.37
2018-01-06T09:46:27.855Z,174.70
2018-01-06T09:48:59.360Z,179.33
2018-01-06T09:51:26.050Z,155.10
2018-01-06T09:53:52.798Z,141.90
2018-01-06T09:56:36.233Z,134.00
2018-01-06T09:59:03.014Z,128.77
2018-01-06T10:01:30.250Z,130.47
2018-01-06T10:03:56.974Z,128.70
2018-01-06T10:09:11.129Z,114.07
2018-01-06T10:14:17.945Z,91.23
2018-01-06T10:16:44.676Z,88.23
2018-01-06T10:19:12.170Z,79.80
2018-01-06T10:21:43.852Z,77.67
2018-01-06T10:30:01.866Z,78.07
2018-01-06T10:32:28.570Z,85.73
2018-01-06T10:37:54.247Z,81.80
2018-01-06T10:40:21.145Z,74.90
2018-01-06T10:42:47.899Z,99.27
2018-01-06T10:45:14.627Z,90.27
2018-01-06T10:47:41.351Z,88.40
2018-01-06T10:50:08.030Z,77.37
2018-01-06T10:52:34.707Z,84.53
2018-01-06T10:55:03.695Z,77.93
2018-01-06T10:57:30.428Z,79.50
2018-01-06T10:59:57.143Z,81.23
2018-01-06T11:02:24.943Z,74.67
2018-01-06T11:04:53.515Z,71.07
2018-01-06T11:07:20.347Z,75.53
2018-01-06T11:09:47.108Z,82.17
2018-01-06T11:12:13.816Z,82.03
2018-01-06T11:14:40.511Z,82.77
2018-01-06T11:17:07.215Z,76.07
2018-01-06T11:19:33.905Z,74.67
2018-01-06T11:22:02.571Z,74.93
2018-01-06T11:24:29.291Z,78.00
2018-01-06T11:26:55.994Z,83.60
2018-01-06T11:29:22.682Z,79.57
2018-01-06T11:31:49.392Z,79.60
2018-01-06T11:34:16.103Z,84.60
2018-01-06T11:39:38.424Z,80.70
2018-01-06T11:45:23.093Z,75.57
2018-01-06T11:47:49.822Z,79.63
2018-01-06T11:53:18.073Z,66.53
2018-01-06T11:55:44.809Z,69.60
2018-01-06T12:00:59.535Z,75.43
2018-01-06T12:03:26.321Z,75.67
2018-01-06T12:05:56.598Z,62.43
2018-01-06T12:17:25.523Z,61.10
2018-01-06T12:19:58.971Z,59.93
2018-01-06T12:22:25.834Z,56.10
2018-01-06T12:24:53.358Z,58.17
2018-01-06T12:27:24.545Z,60.10
2018-01-06T12:29:51.423Z,48.57
2018-01-06T12:32:18.230Z,57.50
2018-01-06T12:34:45.479Z,51.17
2018-01-06T12:37:16.382Z,49.57
2018-01-06T12:39:43.199Z,45.63
2018-01-06T12:42:09.891Z,53.30
2018-01-06T12:44:36.599Z,54.63
2018-01-06T12:47:03.290Z,48.67
2018-01-06T12:49:30.003Z,53.53
2018-01-06T12:51:56.729Z,52.40
2018-01-06T12:54:23.441Z,51.90
2018-01-06T12:56:50.139Z,49.33
2018-01-06T12:59:16.964Z,57.87
2018-01-06T13:01:43.657Z,56.90
2018-01-06T13:04:10.362Z,52.07
2018-01-06T13:06:37.077Z,44.17
2018-01-06T13:09:03.805Z,36.10
2018-01-06T13:11:30.492Z,34.93
2018-01-06T13:13:57.209Z,39.67
2018-01-06T13:16:23.895Z,40.43
2018-01-06T13:18:50.596Z,42.73
2018-01-06T13:21:17.321Z,39.00
2018-01-06T13:23:44.015Z,42.57
2018-01-06T13:28:58.083Z,41.00
2018-01-06T13:31:24.814Z,41.93
2018-01-06T13:33:51.552Z,43.50
2018-01-06T13:36:18.245Z,57.87
2018-01-06T13:38:44.955Z,47.83
2018-01-06T13:41:11.667Z,48.67
2018-01-06T13:43:38.354Z,50.67
2018-01-06T13:46:05.061Z,54.13
2018-01-06T13:48:32.031Z,51.77
2018-01-06T13:50:58.718Z,55.27
2018-01-06T13:53:25.438Z,49.53
2018-01-06T13:55:52.134Z,49.13
2018-01-06T13:58:18.875Z,46.27
2018-01-06T14:00:45.609Z,45.07
2018-01-06T14:03:12.297Z,49.13
2018-01-06T14:05:38.992Z,44.90
2018-01-06T14:08:05.695Z,45.07
2018-01-06T14:10:32.382Z,54.27
2018-01-06T14:12:59.077Z,62.87
2018-01-06T14:15:25.819Z,54.93
2018-01-06T14:17:52.511Z,65.83
2018-01-06T14:20:19.200Z,91.67
2018-01-06T14:22:45.914Z,103.13
2018-01-06T14:25:13.512Z,89.23
2018-01-06T14:27:40.207Z,89.70
2018-01-06T14:30:06.931Z,85.43
2018-01-06T14:32:33.690Z,87.50
2018-01-06T14:35:03.340Z,81.67
2018-01-06T14:37:34.524Z,73.40
2018-01-06T14:39:56.887Z,79.33
2018-01-06T14:42:24.549Z,79.13
2018-01-06T14:44:51.289Z,86.50
2018-01-06T14:47:20.503Z,84.00
2018-01-06T14:49:47.212Z,136.57
2018-01-06T14:52:14.496Z,258.23
2018-01-06T14:54:42.300Z,219.77
2018-01-06T14:57:10.967Z,189.73
2018-01-06T14:59:37.703Z,151.67
2018-01-06T15:02:04.386Z,142.97
2018-01-06T15:04:36.735Z,119.97
2018-01-06T15:07:03.526Z,119.67
2018-01-06T15:09:30.411Z,115.93
2018-01-06T15:11:57.137Z,150.87
2018-01-06T15:14:23.903Z,157.57
2018-01-06T15:16:50.593Z,194.97
2018-01-06T15:19:17.300Z,179.73
2018-01-06T15:21:44.026Z,190.10
2018-01-06T15:24:10.755Z,235.57
2018-01-06T15:26:37.483Z,223.97
2018-01-06T15:29:04.228Z,225.80
2018-01-06T15:31:30.945Z,199.63
2018-01-06T15:33:57.778Z,200.70
2018-01-06T15:36:24.545Z,230.90
2018-01-06T15:38:51.286Z,225.47
2018-01-06T15:41:17.997Z,218.17
2018-01-06T15:43:44.742Z,226.17
2018-01-06T15:46:11.446Z,270.83
2018-01-06T15:48:38.167Z,385.30
2018-01-06T15:51:04.894Z,395.23
2018-01-06T15:53:31.583Z,303.87
2018-01-06T15:55:58.293Z,270.63
2018-01-06T15:58:25.039Z,238.90
2018-01-06T16:00:51.749Z,243.33
2018-01-06T16:03:18.753Z,220.73
2018-01-06T16:05:48.011Z,203.70
2018-01-06T16:08:16.951Z,229.10
2018-01-06T16:10:43.685Z,208.30
2018-01-06T16:13:10.981Z,226.17
2018-01-06T16:15:37.679Z,205.30
2018-01-06T16:18:04.368Z,216.17
2018-01-06T16:20:31.195Z,206.97
2018-01-06T16:22:58.841Z,185.50
2018-01-06T16:25:25.773Z,166.63
2018-01-06T16:27:52.483Z,168.00
2018-01-06T16:30:19.193Z,172.73
2018-01-06T16:32:45.895Z,176.60
2018-01-06T16:35:12.636Z,159.00
2018-01-06T16:37:39.331Z,176.77
2018-01-06T16:40:06.024Z,156.37
2018-01-06T16:42:32.739Z,174.60
2018-01-06T16:44:59.441Z,175.27
2018-01-06T16:47:26.883Z,172.40
2018-01-06T16:49:53.608Z,184.40
2018-01-06T16:52:20.299Z,168.53
2018-01-06T16:54:46.995Z,170.33
2018-01-06T16:57:13.699Z,184.50
2018-01-06T16:59:40.403Z,170.47
2018-01-06T17:02:07.117Z,194.70
2018-01-06T17:04:33.855Z,214.97
2018-01-06T17:07:00.555Z,205.63
2018-01-06T17:09:27.275Z,204.80
2018-01-06T17:11:54.000Z,190.47
2018-01-06T17:14:20.822Z,190.20
2018-01-06T17:16:48.127Z,219.57
2018-01-06T17:19:14.855Z,228.70
2018-01-06T17:21:41.604Z,216.93
2018-01-06T17:24:08.379Z,190.83
2018-01-06T17:26:35.103Z,191.17
2018-01-06T17:29:02.419Z,193.27
2018-01-06T17:31:29.195Z,174.43
2018-01-06T17:33:56.027Z,168.93
2018-01-06T17:36:22.807Z,198.73
2018-01-06T17:38:49.597Z,188.57
2018-01-06T17:41:16.525Z,182.10
2018-01-06T17:43:44.035Z,171.03
2018-01-06T17:46:11.090Z,173.93
2018-01-06T17:48:37.887Z,174.23
2018-01-06T17:51:04.667Z,168.97
2018-01-06T17:53:31.516Z,165.30
2018-01-06T17:55:58.574Z,158.07
2018-01-06T17:58:25.410Z,164.40
2018-01-06T18:06:39.771Z,184.13
2018-01-06T18:09:06.537Z,223.43
2018-01-06T18:11:33.229Z,229.07
2018-01-06T18:14:14.030Z,239.83
2018-01-06T18:16:41.405Z,257.63
2018-01-06T18:26:43.875Z,295.97
2018-01-06T18:29:20.743Z,279.67
2018-01-06T18:31:50.198Z,243.43
2018-01-06T18:34:20.258Z,240.00
2018-01-06T18:36:48.172Z,230.57
2018-01-06T18:39:14.892Z,216.33
2018-01-06T18:41:51.736Z,194.77
2018-01-06T18:44:20.101Z,202.23
2018-01-06T18:46:49.248Z,214.80
2018-01-06T18:49:17.427Z,185.70
2018-01-06T18:51:44.213Z,214.03
2018-01-06T18:54:13.905Z,197.17
2018-01-06T18:59:27.689Z,171.23
2018-01-06T19:01:55.498Z,182.17
2018-01-06T19:04:30.993Z,178.47
2018-01-06T19:06:58.824Z,172.50
2018-01-06T19:09:39.955Z,176.53
2018-01-06T19:12:10.715Z,176.50
2018-01-06T19:14:40.637Z,178.37
2018-01-06T19:17:10.095Z,174.00
2018-01-06T19:22:20.963Z,176.90
2018-01-06T19:24:47.717Z,168.27
2018-01-06T19:27:14.407Z,172.13
2018-01-06T19:29:41.118Z,169.30
2018-01-06T19:32:07.861Z,185.97
2018-01-06T19:34:34.568Z,175.57
2018-01-06T19:37:01.276Z,168.83
2018-01-06T19:39:28.010Z,190.10
2018-01-06T19:41:54.710Z,181.00
2018-01-06T19:44:21.397Z,180.83
2018-01-06T19:46:48.577Z,196.03
2018-01-06T19:49:15.616Z,155.80
2018-01-06T19:51:42.445Z,157.70
2018-01-06T19:54:09.157Z,159.27
2018-01-06T19:56:35.869Z,167.00
2018-01-06T19:59:03.293Z,166.10
2018-01-06T20:01:30.057Z,163.67
2018-01-06T20:03:56.756Z,172.90
2018-01-06T20:06:23.482Z,166.27
2018-01-06T20:08:50.250Z,166.37
2018-01-06T20:11:16.948Z,177.30
2018-01-06T20:13:43.718Z,170.47
2018-01-06T20:16:10.656Z,177.07
2018-01-06T20:18:37.401Z,181.40
2018-01-06T20:21:04.995Z,178.53
2018-01-06T20:23:31.748Z,175.30
2018-01-06T20:25:58.456Z,197.80
2018-01-06T20:28:25.174Z,192.83
2018-01-06T20:31:03.305Z,201.57
2018-01-06T20:33:30.004Z,189.93
2018-01-06T20:35:56.754Z,200.43
2018-01-06T20:38:23.495Z,191.80
2018-01-06T20:40:50.346Z,197.27
2018-01-06T20:43:17.068Z,199.57
2018-01-06T20:45:44.768Z,209.90
2018-01-06T20:48:11.479Z,216.03
2018-01-06T20:50:38.280Z,195.63
2018-01-06T20:53:05.018Z,228.10
2018-01-06T20:55:31.921Z,210.60
2018-01-06T20:57:58.944Z,222.10
2018-01-06T21:00:25.753Z,244.87
2018-01-06T21:02:52.666Z,266.90
2018-01-06T21:05:20.346Z,264.87
2018-01-06T21:07:47.998Z,271.37
2018-01-06T21:10:14.802Z,246.93
2018-01-06T21:12:41.501Z,240.20
2018-01-06T21:15:08.278Z,232.90
2018-01-06T21:17:35.040Z,249.73
2018-01-06T21:20:01.812Z,256.63
2018-01-06T21:22:33.899Z,252.53
2018-01-06T21:25:01.158Z,254.67
2018-01-06T21:27:27.884Z,256.23
2018-01-06T21:29:55.714Z,253.10
2018-01-06T21:32:22.422Z,253.90
2018-01-06T21:37:44.296Z,239.37
2018-01-06T21:40:11.069Z,245.37
2018-01-06T21:42:37.783Z,227.40
2018-01-06T21:45:05.720Z,228.00
2018-01-06T21:47:32.437Z,233.70
2018-01-06T21:50:04.247Z,236.77
2018-01-06T21:52:31.004Z,230.27
2018-01-06T21:54:58.258Z,234.40
2018-01-06T21:57:25.848Z,220.17
2018-01-06T21:59:52.583Z,222.47
2018-01-06T22:02:19.317Z,206.50
2018-01-06T22:04:46.052Z,203.57
2018-01-06T22:07:12.746Z,221.60
2018-01-06T22:09:39.508Z,210.17
2018-01-06T22:12:08.517Z,216.80
2018-01-06T22:14:35.261Z,236.57
2018-01-06T22:17:07.764Z,227.93
2018-01-06T22:19:39.819Z,225.80
2018-01-06T22:22:06.536Z,221.33
2018-01-06T22:24:39.700Z,238.33
2018-01-06T22:27:11.524Z,220.73
2018-01-06T22:29:41.310Z,231.80
2018-01-06T22:32:11.886Z,229.27
2018-01-06T22:37:24.636Z,190.93
2018-01-06T22:39:54.676Z,204.20
2018-01-06T22:42:22.412Z,190.83
2018-01-06T22:45:02.436Z,195.37
2018-01-06T22:47:32.702Z,205.13
2018-01-06T22:50:01.453Z,208.67
2018-01-06T22:52:33.060Z,210.73
2018-01-06T22:57:46.916Z,204.47
2018-01-06T23:03:02.694Z,203.97
2018-01-06T23:05:29.422Z,194.63
2018-01-06T23:07:56.145Z,204.93
2018-01-06T23:13:16.336Z,216.20
2018-01-06T23:15:43.933Z,215.10
2018-01-06T23:18:17.898Z,202.53
2018-01-06T23:20:44.632Z,175.60
2018-01-06T23:23:12.320Z,169.60
2018-01-06T23:25:51.556Z,158.73
2018-01-06T23:31:14.458Z,141.93
2018-01-06T23:33:42.084Z,121.97
2018-01-06T23:36:08.767Z,128.60
2018-01-06T23:44:20.871Z,196.83
2018-01-06T23:49:35.298Z,225.70
2018-01-06T23:52:16.222Z,218.17
2018-01-06T23:54:57.926Z,181.87
2018-01-06T23:57:37.320Z,204.27
